createdAt,value
2022-09-06T00:01:29.896Z,95963.50
2022-09-06T00:03:57.796Z,95971.91
2022-09-06T00:06:25.767Z,95956.31
2022-09-06T00:08:53.661Z,95955.19
2022-09-06T00:11:21.988Z,95968.75
2022-09-06T00:13:50.119Z,95953.59
2022-09-06T00:16:21.196Z,95970.91
2022-09-06T00:18:49.157Z,95969.44
2022-09-06T00:21:20.296Z,95977.59
2022-09-06T00:23:48.540Z,95971.72
2022-09-06T00:26:16.869Z,95979.00
2022-09-06T00:28:44.976Z,95954.28
2022-09-06T00:31:14.712Z,95936.03
2022-09-06T00:33:44.232Z,95965.09
2022-09-06T00:36:13.529Z,95952.53
2022-09-06T00:38:42.552Z,95965.88
2022-09-06T00:41:12.689Z,95964.97
2022-09-06T00:43:41.332Z,95968.22
2022-09-06T00:46:11.710Z,95966.88
2022-09-06T00:48:41.626Z,95828.69
2022-09-06T00:51:14.140Z,95907.06
2022-09-06T00:53:42.261Z,95960.69
2022-09-06T00:56:10.808Z,95964.41
2022-09-06T00:58:39.019Z,95968.59
2022-09-06T01:01:08.116Z,95967.38
2022-09-06T01:03:37.499Z,95962.72
2022-09-06T01:06:22.427Z,95963.88
2022-09-06T01:09:08.585Z,95966.91
2022-09-06T01:11:54.055Z,95968.88
2022-09-06T01:14:31.550Z,95980.97
2022-09-06T01:17:08.997Z,95974.63
2022-09-06T01:20:10.083Z,95970.66
2022-09-06T01:23:00.827Z,95964.91
2022-09-06T01:25:37.908Z,95961.03
2022-09-06T01:28:31.458Z,95961.75
2022-09-06T01:31:09.003Z,95964.91
2022-09-06T01:33:43.433Z,95964.91
2022-09-06T01:36:16.451Z,95968.75
2022-09-06T01:38:44.410Z,95961.28
2022-09-06T01:41:12.447Z,95959.72
2022-09-06T01:43:46.956Z,95959.72
2022-09-06T01:46:21.365Z,95951.19
2022-09-06T01:49:03.968Z,95948.41
2022-09-06T01:51:39.045Z,95951.78
2022-09-06T01:54:24.730Z,95920.25
2022-09-06T01:57:04.623Z,95928.03
2022-09-06T01:59:46.128Z,95909.75
2022-09-06T02:02:21.977Z,95929.72
2022-09-06T02:04:54.204Z,95935.53
2022-09-06T02:07:24.793Z,95900.94
2022-09-06T02:09:56.546Z,95843.44
2022-09-06T02:12:27.414Z,95935.75
2022-09-06T02:14:59.555Z,95930.03
2022-09-06T02:17:31.565Z,95926.06
2022-09-06T02:20:02.634Z,95916.78
2022-09-06T02:22:34.570Z,95934.75
2022-09-06T02:25:04.176Z,95927.41
2022-09-06T02:27:32.111Z,95933.50
2022-09-06T02:30:03.028Z,95939.28
2022-09-06T02:32:34.844Z,95924.94
2022-09-06T02:35:09.873Z,95940.09
2022-09-06T02:37:37.829Z,95941.88
2022-09-06T02:40:06.531Z,95868.44
2022-09-06T02:42:34.563Z,95945.91
2022-09-06T02:45:05.320Z,95938.69
2022-09-06T02:47:33.213Z,95937.16
2022-09-06T02:50:01.141Z,95949.44
2022-09-06T02:52:29.048Z,95951.75
2022-09-06T02:54:56.924Z,95952.13
2022-09-06T02:57:24.836Z,95957.84
2022-09-06T02:59:52.724Z,95951.44
2022-09-06T03:02:22.034Z,95938.00
2022-09-06T03:04:49.955Z,95941.16
2022-09-06T03:07:17.884Z,95934.25
2022-09-06T03:09:45.800Z,95940.47
2022-09-06T03:12:13.741Z,95941.78
2022-09-06T03:14:42.201Z,95939.91
2022-09-06T03:17:10.128Z,95943.22
2022-09-06T03:19:39.375Z,95938.72
2022-09-06T03:22:07.284Z,95942.91
2022-09-06T03:24:35.176Z,95924.03
2022-09-06T03:27:03.057Z,95951.06
2022-09-06T03:29:30.968Z,95950.31
2022-09-06T03:31:58.958Z,95948.84
2022-09-06T03:34:26.844Z,95941.22
2022-09-06T03:36:56.107Z,95942.81
2022-09-06T03:39:24.080Z,95973.34
2022-09-06T03:41:52.003Z,95962.50
2022-09-06T03:44:19.914Z,95964.44
2022-09-06T03:46:47.783Z,95968.50
2022-09-06T03:49:15.712Z,95964.69
2022-09-06T03:51:43.634Z,95965.94
2022-09-06T03:54:12.872Z,95970.19
2022-09-06T03:56:40.780Z,95979.88
2022-09-06T03:59:08.682Z,95962.72
2022-09-06T04:01:36.657Z,95972.63
2022-09-06T04:04:04.679Z,95951.84
2022-09-06T04:06:32.612Z,95971.13
2022-09-06T04:09:00.527Z,95974.69
2022-09-06T04:11:29.812Z,95967.78
2022-09-06T04:13:57.729Z,95970.72
2022-09-06T04:16:25.671Z,95969.19
2022-09-06T04:18:53.630Z,95975.06
2022-09-06T04:21:21.514Z,95920.44
2022-09-06T04:23:49.647Z,95968.59
2022-09-06T04:26:17.596Z,95966.53
2022-09-06T04:28:47.033Z,95966.16
2022-09-06T04:31:14.981Z,95973.28
2022-09-06T04:33:42.895Z,95952.16
2022-09-06T04:36:12.269Z,95978.63
2022-09-06T04:38:42.060Z,95975.25
2022-09-06T04:41:11.138Z,95969.31
2022-09-06T04:43:39.356Z,95970.88
2022-09-06T04:46:16.575Z,95906.66
2022-09-06T04:48:44.516Z,95969.69
2022-09-06T04:51:12.418Z,95973.91
2022-09-06T04:53:40.399Z,95970.34
2022-09-06T04:56:08.416Z,95965.34
2022-09-06T04:58:36.326Z,95969.56
2022-09-06T05:01:04.296Z,95970.22
2022-09-06T05:03:33.608Z,95917.84
2022-09-06T05:06:09.244Z,95956.16
2022-09-06T05:08:38.862Z,95958.50
2022-09-06T05:11:07.464Z,95965.44
2022-09-06T05:13:36.012Z,95966.03
2022-09-06T05:16:04.896Z,95967.16
2022-09-06T05:18:34.877Z,95960.16
2022-09-06T05:21:02.771Z,95962.00
2022-09-06T05:23:30.815Z,95963.06
2022-09-06T05:25:58.708Z,95955.59
2022-09-06T05:28:26.735Z,95948.50
2022-09-06T05:30:54.737Z,95956.09
2022-09-06T05:33:23.759Z,95956.72
2022-09-06T05:35:53.190Z,95943.06
2022-09-06T05:38:21.130Z,95970.97
2022-09-06T05:40:49.167Z,95965.00
2022-09-06T05:43:17.220Z,95968.34
2022-09-06T05:45:45.408Z,95919.50
2022-09-06T05:48:13.384Z,95964.78
2022-09-06T05:50:41.289Z,95964.44
2022-09-06T05:53:10.825Z,95970.16
2022-09-06T05:55:42.754Z,95945.38
2022-09-06T05:58:11.053Z,95967.44
2022-09-06T06:00:38.972Z,95942.91
2022-09-06T06:03:06.913Z,95958.78
2022-09-06T06:05:34.848Z,95942.66
2022-09-06T06:08:03.120Z,95951.25
2022-09-06T06:10:35.460Z,95948.03
2022-09-06T06:13:06.432Z,95949.97
2022-09-06T06:15:34.356Z,95950.41
2022-09-06T06:18:02.260Z,95922.38
2022-09-06T06:20:30.188Z,95938.72
2022-09-06T06:22:58.368Z,95936.25
2022-09-06T06:25:26.367Z,95931.50
2022-09-06T06:27:55.620Z,95935.03
2022-09-06T06:30:23.522Z,95795.66
2022-09-06T06:32:51.444Z,95945.19
2022-09-06T06:35:19.342Z,95938.94
2022-09-06T06:37:47.274Z,95888.63
2022-09-06T06:40:15.216Z,95942.47
2022-09-06T06:42:43.239Z,95938.50
2022-09-06T06:45:12.857Z,95923.19
2022-09-06T06:47:40.759Z,95933.81
2022-09-06T06:50:09.349Z,95810.81
2022-09-06T06:52:37.267Z,95938.13
2022-09-06T06:55:06.716Z,95925.56
2022-09-06T06:57:34.615Z,95943.97
2022-09-06T07:00:04.472Z,95942.50
2022-09-06T07:02:34.192Z,95920.03
2022-09-06T07:05:02.192Z,95941.25
2022-09-06T07:07:30.460Z,95938.16
2022-09-06T07:12:46.712Z,95941.25
2022-09-06T07:15:14.664Z,95946.34
2022-09-06T07:17:44.175Z,95937.94
2022-09-06T07:22:45.230Z,95942.03
2022-09-06T07:25:19.083Z,95909.75
2022-09-06T07:27:49.983Z,95946.16
2022-09-06T07:30:19.621Z,95945.53
2022-09-06T07:32:49.349Z,95950.63
2022-09-06T07:35:17.431Z,95950.84
2022-09-06T07:37:52.376Z,95944.28
2022-09-06T07:40:20.303Z,95935.84
2022-09-06T07:42:48.289Z,95948.94
2022-09-06T07:45:16.312Z,95919.34
2022-09-06T07:47:59.639Z,95938.84
2022-09-06T07:50:47.476Z,95946.44
2022-09-06T07:53:25.976Z,95941.72
2022-09-06T07:55:58.340Z,95935.38
2022-09-06T07:58:26.240Z,95943.59
2022-09-06T08:00:54.460Z,95946.66
2022-09-06T08:03:22.596Z,95935.66
2022-09-06T08:11:25.185Z,95938.38
2022-09-06T08:13:55.657Z,95927.44
2022-09-06T08:16:27.892Z,95933.47
2022-09-06T08:18:57.809Z,95926.28
2022-09-06T08:21:29.319Z,95933.09
2022-09-06T08:23:59.656Z,95934.22
2022-09-06T08:26:29.246Z,95930.97
2022-09-06T08:28:58.493Z,95771.06
2022-09-06T08:31:26.771Z,95923.75
2022-09-06T08:33:55.599Z,95914.16
2022-09-06T08:36:27.176Z,95924.22
2022-09-06T08:38:56.492Z,95888.66
2022-09-06T08:41:29.571Z,95923.50
2022-09-06T08:46:56.855Z,95893.91
2022-09-06T08:49:27.013Z,95906.19
2022-09-06T08:52:08.693Z,95893.53
2022-09-06T08:54:41.485Z,95889.34
2022-09-06T08:57:15.807Z,95893.09
2022-09-06T08:59:44.153Z,95889.06
2022-09-06T09:02:14.696Z,95859.53
2022-09-06T09:04:46.719Z,95882.66
2022-09-06T09:07:30.257Z,95878.31
2022-09-06T09:10:03.782Z,95859.34
2022-09-06T09:12:38.099Z,95870.44
2022-09-06T09:15:09.314Z,95868.38
2022-09-06T09:17:38.122Z,95864.09
2022-09-06T09:20:08.373Z,95868.13
2022-09-06T09:22:36.905Z,95819.19
2022-09-06T09:25:09.305Z,95854.50
2022-09-06T09:27:37.996Z,95840.69
2022-09-06T09:32:56.205Z,95840.09
2022-09-06T09:35:31.085Z,95831.56
2022-09-06T09:38:07.760Z,95840.59
2022-09-06T09:40:42.100Z,95838.56
2022-09-06T09:43:16.958Z,95802.38
2022-09-06T09:45:45.702Z,95825.66
2022-09-06T09:48:28.168Z,95792.59
2022-09-06T09:50:56.853Z,95762.72
2022-09-06T09:53:26.172Z,95828.81
2022-09-06T09:56:00.102Z,95831.91
2022-09-06T09:58:34.938Z,95817.16
2022-09-06T10:01:17.075Z,95814.59
2022-09-06T10:09:24.742Z,95807.03
2022-09-06T10:11:59.755Z,95797.03
2022-09-06T10:14:30.644Z,95818.06
2022-09-06T10:17:00.199Z,95778.66
2022-09-06T10:19:43.382Z,95804.47
2022-09-06T10:22:21.991Z,95805.81
2022-09-06T10:25:07.110Z,95800.34
2022-09-06T10:27:39.938Z,95786.88
2022-09-06T10:30:14.565Z,95799.00
2022-09-06T10:32:47.893Z,95786.41
2022-09-06T10:35:24.244Z,95769.03
2022-09-06T10:38:08.681Z,95783.25
2022-09-06T10:40:47.240Z,95783.38
2022-09-06T10:43:19.704Z,95775.16
2022-09-06T10:45:57.735Z,95725.19
2022-09-06T10:48:30.690Z,95758.56
2022-09-06T10:51:02.581Z,95775.84
2022-09-06T10:53:44.700Z,95735.63
2022-09-06T10:56:17.856Z,95774.94
2022-09-06T11:01:45.683Z,95770.38
2022-09-06T11:04:24.289Z,95765.16
2022-09-06T11:06:57.669Z,95765.91
2022-09-06T11:09:33.981Z,95754.03
2022-09-06T11:12:09.328Z,95767.75
2022-09-06T11:14:40.256Z,95749.03
2022-09-06T11:17:12.824Z,95758.47
2022-09-06T11:19:47.905Z,95768.25
2022-09-06T11:22:44.633Z,95757.91
2022-09-06T11:25:36.756Z,95740.50
2022-09-06T11:28:10.798Z,95750.94
2022-09-06T11:30:45.366Z,95752.00
2022-09-06T11:33:24.473Z,95759.00
2022-09-06T11:35:53.509Z,95754.06
2022-09-06T11:38:27.683Z,95737.56
2022-09-06T11:41:02.131Z,95721.66
2022-09-06T11:43:48.508Z,95743.47
2022-09-06T11:46:53.974Z,95732.66
2022-09-06T11:49:34.935Z,95736.50
2022-09-06T11:52:03.669Z,95711.81
2022-09-06T11:54:43.621Z,95724.41
2022-09-06T11:57:16.430Z,95721.59
2022-09-06T12:00:01.717Z,95732.47
2022-09-06T12:02:38.512Z,95725.94
2022-09-06T12:05:26.757Z,95713.84
2022-09-06T12:08:34.175Z,95715.28
2022-09-06T12:11:27.034Z,95716.31
2022-09-06T12:14:03.492Z,95713.19
2022-09-06T12:17:23.160Z,95705.56
2022-09-06T12:19:52.942Z,95683.91
2022-09-06T12:22:53.525Z,95694.94
2022-09-06T12:25:56.116Z,95693.16
2022-09-06T12:28:37.136Z,95699.94
2022-09-06T12:31:25.310Z,95697.84
2022-09-06T12:33:54.817Z,95697.84
2022-09-06T12:36:29.929Z,95704.97
2022-09-06T12:39:01.499Z,95697.47
2022-09-06T12:41:32.010Z,95696.16
2022-09-06T12:44:01.728Z,95694.81
2022-09-06T12:46:32.110Z,95701.94
2022-09-06T12:49:06.052Z,95689.97
2022-09-06T12:51:35.057Z,95660.72
2022-09-06T12:54:06.915Z,95680.13
2022-09-06T12:56:35.748Z,95682.72
2022-09-06T12:59:17.808Z,95677.69
2022-09-06T13:01:56.357Z,95586.88
2022-09-06T13:04:33.677Z,95660.50
2022-09-06T13:07:04.212Z,95669.56
2022-09-06T13:09:34.733Z,95690.59
2022-09-06T13:12:07.653Z,95675.47
2022-09-06T13:14:36.552Z,95648.78
2022-09-06T13:17:04.584Z,95667.25
2022-09-06T13:19:35.460Z,95668.28
2022-09-06T13:22:07.420Z,95671.47
2022-09-06T13:24:47.670Z,95672.25
2022-09-06T13:27:26.942Z,95670.16
2022-09-06T13:29:59.412Z,95664.53
2022-09-06T13:32:28.185Z,95666.38
2022-09-06T13:34:58.513Z,95662.41
2022-09-06T13:37:28.774Z,95674.19
2022-09-06T13:39:59.305Z,95666.25
2022-09-06T13:42:30.294Z,95677.94
2022-09-06T13:45:01.927Z,95648.47
2022-09-06T13:47:30.637Z,95671.50
2022-09-06T13:49:58.565Z,95671.19
2022-09-06T13:52:26.960Z,95681.16
2022-09-06T13:54:54.856Z,95670.13
2022-09-06T13:57:24.751Z,95666.44
2022-09-06T13:59:52.804Z,95651.34
2022-09-06T14:02:21.020Z,95659.16
2022-09-06T14:04:49.016Z,95626.56
2022-09-06T14:07:16.987Z,95659.63
2022-09-06T14:09:45.669Z,95676.06
2022-09-06T14:12:13.543Z,95659.41
2022-09-06T14:14:44.710Z,95652.63
2022-09-06T14:17:12.850Z,95645.97
2022-09-06T14:19:41.450Z,95654.50
2022-09-06T14:22:09.347Z,95648.91
2022-09-06T14:24:37.285Z,95659.00
2022-09-06T14:27:07.087Z,95660.78
2022-09-06T14:29:35.737Z,95658.22
2022-09-06T14:32:05.392Z,95653.72
2022-09-06T14:34:33.308Z,95659.56
2022-09-06T14:37:01.260Z,95654.81
2022-09-06T14:39:29.207Z,95647.81
2022-09-06T14:41:57.356Z,95606.19
2022-09-06T14:44:25.261Z,95657.84
2022-09-06T14:46:54.533Z,95646.53
2022-09-06T14:49:25.226Z,95655.50
2022-09-06T14:51:53.729Z,95611.66
2022-09-06T14:54:25.029Z,95606.03
2022-09-06T14:56:55.280Z,95624.69
2022-09-06T14:59:23.182Z,95639.88
2022-09-06T15:01:51.200Z,95596.69
2022-09-06T15:04:19.259Z,95622.47
2022-09-06T15:06:48.502Z,95639.75
2022-09-06T15:09:17.637Z,95644.97
2022-09-06T15:11:48.060Z,95616.72
2022-09-06T15:14:18.669Z,95639.22
2022-09-06T15:16:49.891Z,95641.78
2022-09-06T15:19:21.337Z,95637.06
2022-09-06T15:21:50.960Z,95649.44
2022-09-06T15:24:19.019Z,95635.75
2022-09-06T15:26:46.967Z,95652.53
2022-09-06T15:29:15.798Z,95598.34
2022-09-06T15:31:44.899Z,95617.03
2022-09-06T15:34:12.792Z,95656.28
2022-09-06T15:36:40.686Z,95658.81
2022-09-06T15:39:09.937Z,95647.13
2022-09-06T15:41:40.389Z,95656.53
2022-09-06T15:44:10.827Z,95658.50
2022-09-06T15:46:47.139Z,95659.13
2022-09-06T15:49:17.423Z,95656.94
2022-09-06T15:51:45.320Z,95639.00
2022-09-06T15:54:16.039Z,95666.03
2022-09-06T15:56:44.312Z,95666.44
2022-09-06T15:59:13.013Z,95664.09
2022-09-06T16:01:41.301Z,95662.56
2022-09-06T16:04:09.215Z,95668.22
2022-09-06T16:06:39.755Z,95660.91
2022-09-06T16:09:09.382Z,95672.31
2022-09-06T16:11:39.032Z,95675.91
2022-09-06T16:14:08.748Z,95667.69
2022-09-06T16:16:37.139Z,95664.97
2022-09-06T16:19:05.405Z,95664.59
2022-09-06T16:21:34.831Z,95653.66
2022-09-06T16:24:04.766Z,95666.22
2022-09-06T16:26:35.550Z,95662.31
2022-09-06T16:29:06.583Z,95632.94
2022-09-06T16:31:39.748Z,95667.41
2022-09-06T16:34:08.474Z,95669.78
2022-09-06T16:36:36.515Z,95675.28
2022-09-06T16:39:04.659Z,95672.59
2022-09-06T16:41:37.211Z,95675.78
2022-09-06T16:44:06.488Z,95662.03
2022-09-06T16:46:34.778Z,95675.75
2022-09-06T16:49:04.511Z,95677.69
2022-09-06T16:51:32.849Z,95673.38
2022-09-06T16:54:01.604Z,95673.00
2022-09-06T16:56:33.219Z,95669.50
2022-09-06T16:59:02.734Z,95681.72
2022-09-06T17:01:32.775Z,95689.97
2022-09-06T17:04:01.761Z,95684.84
2022-09-06T17:06:30.464Z,95686.81
2022-09-06T17:08:59.329Z,95696.25
2022-09-06T17:11:28.729Z,95667.22
2022-09-06T17:13:57.545Z,95698.97
2022-09-06T17:16:43.302Z,95700.97
2022-09-06T17:19:13.950Z,95698.59
2022-09-06T17:21:42.361Z,95699.38
2022-09-06T17:24:10.676Z,95715.09
2022-09-06T17:26:40.014Z,95707.25
2022-09-06T17:29:08.336Z,95709.59
2022-09-06T17:31:36.845Z,95695.47
2022-09-06T17:34:05.433Z,95698.97
2022-09-06T17:36:35.777Z,95709.97
2022-09-06T17:39:06.987Z,95710.34
2022-09-06T17:41:37.852Z,95718.94
2022-09-06T17:44:06.749Z,95701.72
2022-09-06T17:46:35.026Z,95710.31
2022-09-06T17:49:03.108Z,95715.38
2022-09-06T17:51:31.097Z,95719.25
2022-09-06T17:54:00.715Z,95721.19
2022-09-06T17:56:29.078Z,95725.88
2022-09-06T17:58:59.373Z,95697.19
2022-09-06T18:01:30.837Z,95682.25
2022-09-06T18:03:59.823Z,95726.63
2022-09-06T18:06:29.936Z,95717.97
2022-09-06T18:09:03.844Z,95735.63
2022-09-06T18:11:33.962Z,95735.97
2022-09-06T18:14:03.639Z,95740.69
2022-09-06T18:16:33.181Z,95743.44
2022-09-06T18:19:02.864Z,95748.50
2022-09-06T18:21:32.117Z,95723.34
2022-09-06T18:24:01.393Z,95747.31
2022-09-06T18:26:29.454Z,95758.69
2022-09-06T18:28:57.681Z,95658.09
2022-09-06T18:31:27.777Z,95756.34
2022-09-06T18:33:58.372Z,95752.44
2022-09-06T18:36:31.718Z,95761.88
2022-09-06T18:39:04.665Z,95758.72
2022-09-06T18:41:50.863Z,95746.94
2022-09-06T18:44:19.255Z,95750.03
2022-09-06T18:46:48.210Z,95744.47
2022-09-06T18:49:16.716Z,95760.97
2022-09-06T18:51:45.864Z,95764.47
2022-09-06T18:54:15.804Z,95756.63
2022-09-06T18:56:45.087Z,95755.03
2022-09-06T18:59:14.592Z,95762.03
2022-09-06T19:01:43.457Z,95761.63
2022-09-06T19:04:12.883Z,95756.91
2022-09-06T19:06:45.534Z,95750.56
2022-09-06T19:09:17.733Z,95745.44
2022-09-06T19:11:51.508Z,95741.81
2022-09-06T19:14:22.384Z,95745.28
2022-09-06T19:16:51.924Z,95753.81
2022-09-06T19:19:21.609Z,95752.19
2022-09-06T19:21:49.818Z,95751.00
2022-09-06T19:24:22.896Z,95748.63
2022-09-06T19:26:51.705Z,95745.47
2022-09-06T19:29:20.810Z,95714.63
2022-09-06T19:31:49.721Z,95754.09
2022-09-06T19:34:17.880Z,95752.94
2022-09-06T19:36:46.332Z,95725.81
2022-09-06T19:39:16.607Z,95754.16
2022-09-06T19:41:47.802Z,95754.16
2022-09-06T19:44:17.150Z,95720.75
2022-09-06T19:46:47.040Z,95747.06
2022-09-06T19:49:19.206Z,95750.59
2022-09-06T19:51:48.854Z,95737.25
2022-09-06T19:54:18.083Z,95746.94
2022-09-06T19:56:47.973Z,95736.66
2022-09-06T19:59:17.733Z,95739.75
2022-09-06T20:01:47.735Z,95719.97
2022-09-06T20:04:16.156Z,95737.25
2022-09-06T20:06:44.256Z,95719.03
2022-09-06T20:09:12.680Z,95734.44
2022-09-06T20:11:41.661Z,95717.41
2022-09-06T20:14:11.597Z,95732.72
2022-09-06T20:16:42.066Z,95742.91
2022-09-06T20:19:12.039Z,95740.16
2022-09-06T20:21:40.059Z,95704.63
2022-09-06T20:24:08.430Z,95745.81
2022-09-06T20:26:36.807Z,95715.09
2022-09-06T20:29:06.741Z,95743.34
2022-09-06T20:31:37.845Z,95740.50
2022-09-06T20:34:07.543Z,95750.22
2022-09-06T20:36:35.588Z,95737.59
2022-09-06T20:39:03.726Z,95748.13
2022-09-06T20:41:31.628Z,95744.03
2022-09-06T20:44:00.949Z,95743.88
2022-09-06T20:46:31.825Z,95729.63
2022-09-06T21:04:26.497Z,95757.09
2022-09-06T21:06:54.892Z,95752.34
2022-09-06T21:09:22.757Z,95728.63
2022-09-06T21:11:52.619Z,95756.91
2022-09-06T21:14:20.500Z,95748.91
2022-09-06T21:16:48.456Z,95765.22
2022-09-06T21:19:16.537Z,95768.94
2022-09-06T21:21:45.776Z,95751.72
2022-09-06T21:24:13.929Z,95757.00
2022-09-06T21:26:43.993Z,95771.09
2022-09-06T21:29:11.890Z,95753.72
2022-09-06T21:31:39.828Z,95752.50
2022-09-06T21:34:15.606Z,95759.19
2022-09-06T21:36:46.110Z,95763.91
2022-09-06T21:39:14.161Z,95756.88
2022-09-06T21:41:43.825Z,95759.19
2022-09-06T21:44:12.771Z,95764.03
2022-09-06T21:46:41.551Z,95757.28
2022-09-06T21:49:11.667Z,95761.88
2022-09-06T21:51:39.767Z,95762.59
2022-09-06T21:54:09.198Z,95757.81
2022-09-06T21:56:38.599Z,95746.53
2022-09-06T21:59:07.108Z,95755.22
2022-09-06T22:01:37.825Z,95764.63
2022-09-06T22:04:06.557Z,95759.09
2022-09-06T22:06:35.881Z,95764.38
2022-09-06T22:09:10.707Z,95705.06
2022-09-06T22:11:41.722Z,95759.72
2022-09-06T22:14:11.324Z,95761.94
2022-09-06T22:16:40.980Z,95768.84
2022-09-06T22:19:10.334Z,95764.53
2022-09-06T22:21:39.351Z,95762.50
2022-09-06T22:24:09.380Z,95769.88
2022-09-06T22:26:38.594Z,95755.69
2022-09-06T22:29:10.333Z,95760.25
2022-09-06T22:31:39.025Z,95771.28
2022-09-06T22:34:07.516Z,95758.47
2022-09-06T22:36:35.874Z,95762.03
2022-09-06T22:39:04.052Z,95763.53
2022-09-06T22:41:34.008Z,95759.59
2022-09-06T22:44:02.720Z,95760.28
2022-09-06T22:46:32.960Z,95759.78
2022-09-06T22:49:02.274Z,95760.06
2022-09-06T22:51:30.197Z,95757.97
2022-09-06T22:53:58.053Z,95759.81
2022-09-06T22:56:25.975Z,95762.06
2022-09-06T22:58:53.865Z,95758.09
2022-09-06T23:01:21.845Z,95758.00
2022-09-06T23:03:51.213Z,95756.22
2022-09-06T23:06:19.408Z,95767.19
2022-09-06T23:08:47.460Z,95730.53
2022-09-06T23:11:17.377Z,95757.00
2022-09-06T23:13:46.159Z,95712.41
2022-09-06T23:16:15.543Z,95764.09
2022-09-06T23:18:43.752Z,95754.88
2022-09-06T23:21:15.313Z,95756.16
2022-09-06T23:23:43.728Z,95752.56
2022-09-06T23:26:13.314Z,95768.63
2022-09-06T23:28:41.493Z,95772.78
2022-09-06T23:31:12.512Z,95772.63
2022-09-06T23:33:40.663Z,95695.56
2022-09-06T23:36:10.588Z,95764.13
2022-09-06T23:38:42.203Z,95763.78
2022-09-06T23:41:10.962Z,95759.41
2022-09-06T23:43:39.325Z,95763.63
2022-09-06T23:46:07.557Z,95766.19
2022-09-06T23:48:35.905Z,95764.94
2022-09-06T23:51:04.503Z,95759.78
2022-09-06T23:53:32.449Z,95770.91
2022-09-06T23:56:01.701Z,95776.28
2022-09-06T23:58:29.709Z,95780.03
